KGRB/GRB METAR and TAF weather

Enter ICAO airport designator
Station Type Date Time Source
KGRB METAR 2020/08/06 00:53 UTC NOAA

KGRB 060053Z 18005KT 10SM CLR 20/11 A3005 RMK AO2 SLP177 T02000111


Station Type Date Time Source
KGRB Decoded METAR 2020/08/06 00:53 UTC NOAA

AUSTIN STRAUBEL INTERNATIONAL AIRPORT , WI, United States (KGRB) 44-29N 088-08W 205M
Aug 05, 2020 - 08:53 PM EDT / 2020.08.06 0053 UTC
Wind: from the S (180 degrees) at 6 MPH (5 KT):0
Visibility: 10 mile(s):0
Sky conditions: clear
Temperature: 68.0 F (20.0 C)
Dew Point: 52.0 F (11.1 C)
Relative Humidity: 56%
Pressure (altimeter): 30.05 in. Hg (1017 hPa)
ob: KGRB 060053Z 18005KT 10SM CLR 20/11 A3005 RMK AO2 SLP177 T02000111
cycle: 1

Station Type Date Time Source
KGRB TAF 2020/08/05 18:24 UTC NOAA

TAF KGRB 051722Z 0518/0618 24006KT P6SM FEW050 BKN250
FM052300 21004KT P6SM SCT070
FM061600 19007KT P6SM SCT050

Example: see airport list